sensor_id;sensor_type;location;lat;lon;timestamp;P1;durP1;ratioP1;P2;durP2;ratioP2
20997;SDS011;10657;51.276;6.390;2023-04-25T00:02:16;10.55;;;3.65;;
20997;SDS011;10657;51.276;6.390;2023-04-25T00:04:43;11.32;;;3.78;;
20997;SDS011;10657;51.276;6.390;2023-04-25T00:07:10;16.50;;;4.47;;
20997;SDS011;10657;51.276;6.390;2023-04-25T00:09:37;12.73;;;3.67;;
20997;SDS011;10657;51.276;6.390;2023-04-25T00:12:03;12.15;;;3.80;;
20997;SDS011;10657;51.276;6.390;2023-04-25T00:14:31;14.02;;;4.55;;
20997;SDS011;10657;51.276;6.390;2023-04-25T00:17:00;11.88;;;3.90;;
20997;SDS011;10657;51.276;6.390;2023-04-25T00:19:26;14.30;;;4.03;;
20997;SDS011;10657;51.276;6.390;2023-04-25T00:21:54;12.43;;;4.00;;
20997;SDS011;10657;51.276;6.390;2023-04-25T00:24:21;12.85;;;3.58;;
20997;SDS011;10657;51.276;6.390;2023-04-25T00:26:48;11.00;;;4.20;;
20997;SDS011;10657;51.276;6.390;2023-04-25T00:29:14;12.90;;;4.47;;
20997;SDS011;10657;51.276;6.390;2023-04-25T00:31:41;10.95;;;4.25;;
20997;SDS011;10657;51.276;6.390;2023-04-25T00:34:08;12.35;;;4.07;;
20997;SDS011;10657;51.276;6.390;2023-04-25T00:36:34;19.10;;;4.35;;
20997;SDS011;10657;51.276;6.390;2023-04-25T00:39:02;11.45;;;4.15;;
20997;SDS011;10657;51.276;6.390;2023-04-25T00:41:30;16.77;;;4.72;;
20997;SDS011;10657;51.276;6.390;2023-04-25T00:43:57;14.00;;;4.70;;
20997;SDS011;10657;51.276;6.390;2023-04-25T00:46:25;15.00;;;5.00;;
20997;SDS011;10657;51.276;6.390;2023-04-25T00:48:52;16.95;;;4.75;;
20997;SDS011;10657;51.276;6.390;2023-04-25T00:51:21;15.90;;;4.05;;
20997;SDS011;10657;51.276;6.390;2023-04-25T00:53:48;15.38;;;4.28;;
20997;SDS011;10657;51.276;6.390;2023-04-25T00:56:17;14.60;;;4.57;;
20997;SDS011;10657;51.276;6.390;2023-04-25T00:58:44;14.65;;;4.70;;
20997;SDS011;10657;51.276;6.390;2023-04-25T01:01:10;12.50;;;4.22;;
20997;SDS011;10657;51.276;6.390;2023-04-25T01:03:39;12.07;;;4.40;;
20997;SDS011;10657;51.276;6.390;2023-04-25T01:06:10;12.82;;;3.88;;
20997;SDS011;10657;51.276;6.390;2023-04-25T01:08:37;14.15;;;4.25;;
20997;SDS011;10657;51.276;6.390;2023-04-25T01:11:05;11.52;;;3.58;;
20997;SDS011;10657;51.276;6.390;2023-04-25T01:13:32;11.82;;;3.53;;
20997;SDS011;10657;51.276;6.390;2023-04-25T01:16:00;12.27;;;4.18;;
20997;SDS011;10657;51.276;6.390;2023-04-25T01:18:27;14.15;;;4.30;;
20997;SDS011;10657;51.276;6.390;2023-04-25T01:20:54;9.45;;;3.63;;
20997;SDS011;10657;51.276;6.390;2023-04-25T01:23:21;10.82;;;3.60;;
20997;SDS011;10657;51.276;6.390;2023-04-25T01:25:49;9.60;;;3.38;;
20997;SDS011;10657;51.276;6.390;2023-04-25T01:28:16;12.60;;;3.35;;
20997;SDS011;10657;51.276;6.390;2023-04-25T01:30:42;9.65;;;3.80;;
20997;SDS011;10657;51.276;6.390;2023-04-25T01:33:09;10.75;;;3.50;;
20997;SDS011;10657;51.276;6.390;2023-04-25T01:35:37;9.18;;;3.40;;
20997;SDS011;10657;51.276;6.390;2023-04-25T01:38:04;12.70;;;3.53;;
20997;SDS011;10657;51.276;6.390;2023-04-25T01:40:30;10.88;;;3.65;;
20997;SDS011;10657;51.276;6.390;2023-04-25T01:42:59;10.20;;;3.40;;
20997;SDS011;10657;51.276;6.390;2023-04-25T01:45:26;10.45;;;3.60;;
20997;SDS011;10657;51.276;6.390;2023-04-25T01:47:52;9.73;;;3.33;;
20997;SDS011;10657;51.276;6.390;2023-04-25T01:50:19;9.82;;;3.50;;
20997;SDS011;10657;51.276;6.390;2023-04-25T01:52:46;8.70;;;3.08;;
20997;SDS011;10657;51.276;6.390;2023-04-25T01:55:13;12.00;;;3.45;;
20997;SDS011;10657;51.276;6.390;2023-04-25T01:57:39;12.00;;;3.28;;
20997;SDS011;10657;51.276;6.390;2023-04-25T02:00:06;8.73;;;3.10;;
20997;SDS011;10657;51.276;6.390;2023-04-25T02:02:35;11.10;;;2.92;;
20997;SDS011;10657;51.276;6.390;2023-04-25T02:05:02;10.25;;;3.38;;
20997;SDS011;10657;51.276;6.390;2023-04-25T02:07:29;11.77;;;2.92;;
20997;SDS011;10657;51.276;6.390;2023-04-25T02:09:55;11.38;;;3.35;;
20997;SDS011;10657;51.276;6.390;2023-04-25T02:12:22;10.65;;;3.10;;
20997;SDS011;10657;51.276;6.390;2023-04-25T02:14:49;11.70;;;3.10;;
20997;SDS011;10657;51.276;6.390;2023-04-25T02:17:15;8.38;;;3.00;;
20997;SDS011;10657;51.276;6.390;2023-04-25T02:19:42;12.23;;;3.75;;
20997;SDS011;10657;51.276;6.390;2023-04-25T02:22:09;10.75;;;3.40;;
20997;SDS011;10657;51.276;6.390;2023-04-25T02:24:36;11.25;;;3.63;;
20997;SDS011;10657;51.276;6.390;2023-04-25T02:27:03;8.70;;;2.50;;
20997;SDS011;10657;51.276;6.390;2023-04-25T02:29:29;7.65;;;3.00;;
20997;SDS011;10657;51.276;6.390;2023-04-25T02:31:56;12.00;;;3.40;;
20997;SDS011;10657;51.276;6.390;2023-04-25T02:34:23;8.40;;;2.80;;
20997;SDS011;10657;51.276;6.390;2023-04-25T02:36:49;10.27;;;3.40;;
20997;SDS011;10657;51.276;6.390;2023-04-25T02:39:19;11.68;;;3.70;;
20997;SDS011;10657;51.276;6.390;2023-04-25T02:41:48;9.93;;;3.38;;
20997;SDS011;10657;51.276;6.390;2023-04-25T02:44:14;8.77;;;2.92;;
20997;SDS011;10657;51.276;6.390;2023-04-25T02:46:41;8.85;;;3.03;;
20997;SDS011;10657;51.276;6.390;2023-04-25T02:49:08;11.52;;;3.17;;
20997;SDS011;10657;51.276;6.390;2023-04-25T02:51:34;9.95;;;3.28;;
20997;SDS011;10657;51.276;6.390;2023-04-25T02:54:01;12.70;;;3.53;;
20997;SDS011;10657;51.276;6.390;2023-04-25T02:56:28;8.68;;;3.47;;
20997;SDS011;10657;51.276;6.390;2023-04-25T02:58:54;12.07;;;3.47;;
20997;SDS011;10657;51.276;6.390;2023-04-25T03:01:21;12.35;;;3.35;;
20997;SDS011;10657;51.276;6.390;2023-04-25T03:03:48;9.25;;;3.00;;
20997;SDS011;10657;51.276;6.390;2023-04-25T03:06:15;10.88;;;3.08;;
20997;SDS011;10657;51.276;6.390;2023-04-25T03:08:42;10.57;;;3.42;;
20997;SDS011;10657;51.276;6.390;2023-04-25T03:11:09;11.50;;;3.45;;
20997;SDS011;10657;51.276;6.390;2023-04-25T03:13:35;10.05;;;3.30;;
20997;SDS011;10657;51.276;6.390;2023-04-25T03:16:02;14.25;;;3.78;;
20997;SDS011;10657;51.276;6.390;2023-04-25T03:18:29;13.52;;;4.28;;
20997;SDS011;10657;51.276;6.390;2023-04-25T03:20:55;11.65;;;3.80;;
20997;SDS011;10657;51.276;6.390;2023-04-25T03:23:22;12.80;;;4.15;;
20997;SDS011;10657;51.276;6.390;2023-04-25T03:25:49;12.73;;;4.00;;
20997;SDS011;10657;51.276;6.390;2023-04-25T03:28:15;12.70;;;3.90;;
20997;SDS011;10657;51.276;6.390;2023-04-25T03:30:42;9.82;;;3.83;;
20997;SDS011;10657;51.276;6.390;2023-04-25T03:33:08;11.60;;;3.53;;
20997;SDS011;10657;51.276;6.390;2023-04-25T03:35:35;13.98;;;3.95;;
20997;SDS011;10657;51.276;6.390;2023-04-25T03:38:02;11.68;;;3.60;;
20997;SDS011;10657;51.276;6.390;2023-04-25T03:40:28;12.93;;;3.90;;
20997;SDS011;10657;51.276;6.390;2023-04-25T03:42:55;12.63;;;3.53;;
20997;SDS011;10657;51.276;6.390;2023-04-25T03:45:22;11.95;;;3.72;;
20997;SDS011;10657;51.276;6.390;2023-04-25T03:47:48;18.83;;;4.30;;
20997;SDS011;10657;51.276;6.390;2023-04-25T03:50:16;13.30;;;3.78;;
20997;SDS011;10657;51.276;6.390;2023-04-25T03:52:42;11.93;;;4.07;;
20997;SDS011;10657;51.276;6.390;2023-04-25T03:55:09;15.18;;;4.43;;
20997;SDS011;10657;51.276;6.390;2023-04-25T03:57:36;12.60;;;3.70;;
20997;SDS011;10657;51.276;6.390;2023-04-25T04:00:03;11.95;;;4.38;;
20997;SDS011;10657;51.276;6.390;2023-04-25T04:02:30;11.65;;;4.13;;
20997;SDS011;10657;51.276;6.390;2023-04-25T04:04:59;13.25;;;3.65;;
20997;SDS011;10657;51.276;6.390;2023-04-25T04:07:26;11.55;;;3.70;;
20997;SDS011;10657;51.276;6.390;2023-04-25T04:09:52;14.32;;;4.80;;
20997;SDS011;10657;51.276;6.390;2023-04-25T04:12:19;16.42;;;4.68;;
20997;SDS011;10657;51.276;6.390;2023-04-25T04:14:46;15.65;;;4.60;;
20997;SDS011;10657;51.276;6.390;2023-04-25T04:17:12;12.45;;;4.18;;
20997;SDS011;10657;51.276;6.390;2023-04-25T04:19:39;11.52;;;4.13;;
20997;SDS011;10657;51.276;6.390;2023-04-25T04:22:05;15.63;;;4.93;;
20997;SDS011;10657;51.276;6.390;2023-04-25T04:24:32;13.73;;;4.38;;
20997;SDS011;10657;51.276;6.390;2023-04-25T04:26:59;12.80;;;4.15;;
20997;SDS011;10657;51.276;6.390;2023-04-25T04:29:25;11.95;;;4.07;;
20997;SDS011;10657;51.276;6.390;2023-04-25T04:31:52;16.35;;;4.25;;
20997;SDS011;10657;51.276;6.390;2023-04-25T04:34:19;14.80;;;4.72;;
20997;SDS011;10657;51.276;6.390;2023-04-25T04:36:46;13.93;;;3.97;;
20997;SDS011;10657;51.276;6.390;2023-04-25T04:39:13;13.38;;;4.60;;
20997;SDS011;10657;51.276;6.390;2023-04-25T04:41:40;11.35;;;3.60;;
20997;SDS011;10657;51.276;6.390;2023-04-25T04:44:06;12.25;;;4.20;;
20997;SDS011;10657;51.276;6.390;2023-04-25T04:46:34;16.83;;;4.65;;
20997;SDS011;10657;51.276;6.390;2023-04-25T04:49:08;15.95;;;4.47;;
20997;SDS011;10657;51.276;6.390;2023-04-25T04:51:36;12.48;;;3.90;;
20997;SDS011;10657;51.276;6.390;2023-04-25T04:54:03;13.57;;;3.75;;
20997;SDS011;10657;51.276;6.390;2023-04-25T04:56:31;15.20;;;4.20;;
20997;SDS011;10657;51.276;6.390;2023-04-25T04:58:58;11.93;;;3.90;;
20997;SDS011;10657;51.276;6.390;2023-04-25T05:01:25;16.77;;;4.50;;
20997;SDS011;10657;51.276;6.390;2023-04-25T05:03:52;10.48;;;3.58;;
20997;SDS011;10657;51.276;6.390;2023-04-25T05:06:20;15.32;;;4.05;;
20997;SDS011;10657;51.276;6.390;2023-04-25T05:08:47;13.02;;;2.67;;
20997;SDS011;10657;51.276;6.390;2023-04-25T05:11:14;12.82;;;4.20;;
20997;SDS011;10657;51.276;6.390;2023-04-25T05:13:40;13.52;;;4.28;;
20997;SDS011;10657;51.276;6.390;2023-04-25T05:16:07;12.85;;;4.13;;
20997;SDS011;10657;51.276;6.390;2023-04-25T05:18:34;12.90;;;4.00;;
20997;SDS011;10657;51.276;6.390;2023-04-25T05:21:01;13.55;;;3.90;;
20997;SDS011;10657;51.276;6.390;2023-04-25T05:23:27;10.70;;;3.88;;
20997;SDS011;10657;51.276;6.390;2023-04-25T05:25:58;17.35;;;4.00;;
20997;SDS011;10657;51.276;6.390;2023-04-25T05:28:25;12.75;;;3.58;;
20997;SDS011;10657;51.276;6.390;2023-04-25T05:30:51;9.57;;;3.30;;
20997;SDS011;10657;51.276;6.390;2023-04-25T05:33:18;9.43;;;3.45;;
20997;SDS011;10657;51.276;6.390;2023-04-25T05:35:46;11.43;;;3.28;;
20997;SDS011;10657;51.276;6.390;2023-04-25T05:38:13;12.73;;;3.95;;
20997;SDS011;10657;51.276;6.390;2023-04-25T05:40:39;10.43;;;3.20;;
20997;SDS011;10657;51.276;6.390;2023-04-25T05:43:06;10.10;;;3.38;;
20997;SDS011;10657;51.276;6.390;2023-04-25T05:45:33;15.50;;;4.40;;
20997;SDS011;10657;51.276;6.390;2023-04-25T05:48:00;13.38;;;3.65;;
20997;SDS011;10657;51.276;6.390;2023-04-25T05:50:26;13.68;;;3.58;;
20997;SDS011;10657;51.276;6.390;2023-04-25T05:52:53;13.93;;;3.35;;
20997;SDS011;10657;51.276;6.390;2023-04-25T05:55:20;16.05;;;4.10;;
20997;SDS011;10657;51.276;6.390;2023-04-25T05:57:46;7.53;;;2.28;;
20997;SDS011;10657;51.276;6.390;2023-04-25T06:00:16;11.35;;;2.95;;
20997;SDS011;10657;51.276;6.390;2023-04-25T06:02:43;12.77;;;3.05;;
20997;SDS011;10657;51.276;6.390;2023-04-25T06:05:10;9.05;;;2.80;;
20997;SDS011;10657;51.276;6.390;2023-04-25T06:07:37;12.32;;;3.20;;
20997;SDS011;10657;51.276;6.390;2023-04-25T06:10:03;11.77;;;3.10;;
20997;SDS011;10657;51.276;6.390;2023-04-25T06:12:32;7.47;;;2.38;;
20997;SDS011;10657;51.276;6.390;2023-04-25T06:14:59;12.70;;;3.38;;
20997;SDS011;10657;51.276;6.390;2023-04-25T06:17:27;10.07;;;3.42;;
20997;SDS011;10657;51.276;6.390;2023-04-25T06:19:54;11.98;;;3.83;;
20997;SDS011;10657;51.276;6.390;2023-04-25T06:22:20;13.30;;;3.50;;
20997;SDS011;10657;51.276;6.390;2023-04-25T06:24:47;11.88;;;3.60;;
20997;SDS011;10657;51.276;6.390;2023-04-25T06:27:14;12.85;;;3.75;;
20997;SDS011;10657;51.276;6.390;2023-04-25T06:29:42;14.35;;;3.53;;
20997;SDS011;10657;51.276;6.390;2023-04-25T06:32:08;16.13;;;3.70;;
20997;SDS011;10657;51.276;6.390;2023-04-25T06:34:35;11.40;;;3.78;;
20997;SDS011;10657;51.276;6.390;2023-04-25T06:37:02;13.68;;;3.80;;
20997;SDS011;10657;51.276;6.390;2023-04-25T06:39:28;18.80;;;3.60;;
20997;SDS011;10657;51.276;6.390;2023-04-25T06:41:56;10.77;;;3.50;;
20997;SDS011;10657;51.276;6.390;2023-04-25T06:44:22;14.13;;;4.20;;
20997;SDS011;10657;51.276;6.390;2023-04-25T06:46:50;15.15;;;3.95;;
20997;SDS011;10657;51.276;6.390;2023-04-25T06:49:16;15.30;;;4.40;;
20997;SDS011;10657;51.276;6.390;2023-04-25T06:51:43;12.13;;;3.30;;
20997;SDS011;10657;51.276;6.390;2023-04-25T06:54:10;14.43;;;4.22;;
20997;SDS011;10657;51.276;6.390;2023-04-25T06:56:37;14.70;;;4.53;;
20997;SDS011;10657;51.276;6.390;2023-04-25T06:59:03;9.82;;;2.53;;
20997;SDS011;10657;51.276;6.390;2023-04-25T07:01:30;10.80;;;3.20;;
20997;SDS011;10657;51.276;6.390;2023-04-25T07:03:57;15.80;;;3.67;;
20997;SDS011;10657;51.276;6.390;2023-04-25T07:06:24;9.45;;;2.65;;
20997;SDS011;10657;51.276;6.390;2023-04-25T07:08:51;13.95;;;3.40;;
20997;SDS011;10657;51.276;6.390;2023-04-25T07:11:18;13.38;;;3.53;;
20997;SDS011;10657;51.276;6.390;2023-04-25T07:13:45;10.27;;;2.85;;
20997;SDS011;10657;51.276;6.390;2023-04-25T07:16:12;14.65;;;3.90;;
20997;SDS011;10657;51.276;6.390;2023-04-25T07:18:39;12.05;;;3.10;;
20997;SDS011;10657;51.276;6.390;2023-04-25T07:21:05;10.63;;;3.40;;
20997;SDS011;10657;51.276;6.390;2023-04-25T07:23:32;12.27;;;3.17;;
20997;SDS011;10657;51.276;6.390;2023-04-25T07:25:59;12.27;;;2.75;;
20997;SDS011;10657;51.276;6.390;2023-04-25T07:28:25;10.10;;;2.97;;
20997;SDS011;10657;51.276;6.390;2023-04-25T07:30:52;13.57;;;3.42;;
20997;SDS011;10657;51.276;6.390;2023-04-25T07:33:19;6.43;;;1.48;;
20997;SDS011;10657;51.276;6.390;2023-04-25T07:35:46;9.43;;;3.33;;
20997;SDS011;10657;51.276;6.390;2023-04-25T07:38:13;7.57;;;2.15;;
20997;SDS011;10657;51.276;6.390;2023-04-25T07:40:40;6.70;;;1.88;;
20997;SDS011;10657;51.276;6.390;2023-04-25T07:43:06;11.00;;;2.90;;
20997;SDS011;10657;51.276;6.390;2023-04-25T07:45:33;11.52;;;2.53;;
20997;SDS011;10657;51.276;6.390;2023-04-25T07:48:00;12.45;;;2.95;;
20997;SDS011;10657;51.276;6.390;2023-04-25T07:50:26;11.07;;;2.90;;
20997;SDS011;10657;51.276;6.390;2023-04-25T07:52:53;12.30;;;2.78;;
20997;SDS011;10657;51.276;6.390;2023-04-25T07:55:19;9.23;;;2.58;;
20997;SDS011;10657;51.276;6.390;2023-04-25T07:57:46;11.10;;;3.10;;
20997;SDS011;10657;51.276;6.390;2023-04-25T08:00:13;12.90;;;2.72;;
20997;SDS011;10657;51.276;6.390;2023-04-25T08:02:40;8.98;;;2.50;;
20997;SDS011;10657;51.276;6.390;2023-04-25T08:05:07;10.30;;;2.42;;
20997;SDS011;10657;51.276;6.390;2023-04-25T08:07:38;8.25;;;1.75;;
20997;SDS011;10657;51.276;6.390;2023-04-25T08:10:07;12.95;;;2.95;;
20997;SDS011;10657;51.276;6.390;2023-04-25T08:12:34;11.05;;;2.53;;
20997;SDS011;10657;51.276;6.390;2023-04-25T08:15:01;13.18;;;2.88;;
20997;SDS011;10657;51.276;6.390;2023-04-25T08:17:28;7.63;;;2.03;;
20997;SDS011;10657;51.276;6.390;2023-04-25T08:19:54;9.25;;;2.80;;
20997;SDS011;10657;51.276;6.390;2023-04-25T08:22:21;10.10;;;2.38;;
20997;SDS011;10657;51.276;6.390;2023-04-25T08:24:48;13.00;;;2.70;;
20997;SDS011;10657;51.276;6.390;2023-04-25T08:27:15;9.75;;;2.80;;
20997;SDS011;10657;51.276;6.390;2023-04-25T08:29:42;11.20;;;2.42;;
20997;SDS011;10657;51.276;6.390;2023-04-25T08:32:08;11.35;;;3.03;;
20997;SDS011;10657;51.276;6.390;2023-04-25T08:34:35;8.55;;;2.58;;
20997;SDS011;10657;51.276;6.390;2023-04-25T08:37:03;12.32;;;3.88;;
20997;SDS011;10657;51.276;6.390;2023-04-25T08:39:31;12.73;;;2.80;;
20997;SDS011;10657;51.276;6.390;2023-04-25T08:41:58;10.90;;;2.92;;
20997;SDS011;10657;51.276;6.390;2023-04-25T08:44:26;7.53;;;2.28;;
20997;SDS011;10657;51.276;6.390;2023-04-25T08:46:53;10.27;;;2.78;;
20997;SDS011;10657;51.276;6.390;2023-04-25T08:49:22;11.98;;;2.95;;
20997;SDS011;10657;51.276;6.390;2023-04-25T08:51:50;10.88;;;2.83;;
20997;SDS011;10657;51.276;6.390;2023-04-25T08:54:18;10.65;;;2.50;;
20997;SDS011;10657;51.276;6.390;2023-04-25T08:57:01;11.27;;;2.85;;
20997;SDS011;10657;51.276;6.390;2023-04-25T08:59:30;7.25;;;2.20;;
20997;SDS011;10657;51.276;6.390;2023-04-25T09:01:58;6.22;;;2.10;;
20997;SDS011;10657;51.276;6.390;2023-04-25T09:04:24;9.13;;;2.67;;
20997;SDS011;10657;51.276;6.390;2023-04-25T09:06:52;7.38;;;2.25;;
20997;SDS011;10657;51.276;6.390;2023-04-25T09:09:18;10.38;;;2.20;;
20997;SDS011;10657;51.276;6.390;2023-04-25T09:11:45;3.97;;;1.10;;
20997;SDS011;10657;51.276;6.390;2023-04-25T09:16:56;7.35;;;1.90;;
20997;SDS011;10657;51.276;6.390;2023-04-25T09:19:24;5.82;;;1.60;;
20997;SDS011;10657;51.276;6.390;2023-04-25T09:22:05;5.57;;;1.38;;
20997;SDS011;10657;51.276;6.390;2023-04-25T09:27:04;11.27;;;1.98;;
20997;SDS011;10657;51.276;6.390;2023-04-25T09:29:36;9.98;;;2.05;;
20997;SDS011;10657;51.276;6.390;2023-04-25T09:32:10;9.20;;;2.30;;
20997;SDS011;10657;51.276;6.390;2023-04-25T09:34:45;8.40;;;1.65;;
20997;SDS011;10657;51.276;6.390;2023-04-25T09:37:17;8.32;;;1.40;;
20997;SDS011;10657;51.276;6.390;2023-04-25T09:39:49;7.70;;;1.70;;
20997;SDS011;10657;51.276;6.390;2023-04-25T09:42:36;6.57;;;1.55;;
20997;SDS011;10657;51.276;6.390;2023-04-25T09:45:07;12.18;;;1.63;;
20997;SDS011;10657;51.276;6.390;2023-04-25T09:47:38;6.47;;;1.35;;
20997;SDS011;10657;51.276;6.390;2023-04-25T09:50:13;5.68;;;1.23;;
20997;SDS011;10657;51.276;6.390;2023-04-25T09:52:41;8.32;;;2.00;;
20997;SDS011;10657;51.276;6.390;2023-04-25T09:55:08;5.50;;;1.30;;
20997;SDS011;10657;51.276;6.390;2023-04-25T09:57:34;8.35;;;2.40;;
20997;SDS011;10657;51.276;6.390;2023-04-25T10:00:05;5.45;;;1.83;;
20997;SDS011;10657;51.276;6.390;2023-04-25T10:02:37;6.88;;;1.70;;
20997;SDS011;10657;51.276;6.390;2023-04-25T10:05:07;7.32;;;2.00;;
20997;SDS011;10657;51.276;6.390;2023-04-25T10:07:35;9.48;;;2.13;;
20997;SDS011;10657;51.276;6.390;2023-04-25T10:10:04;8.98;;;1.70;;
20997;SDS011;10657;51.276;6.390;2023-04-25T10:12:32;6.53;;;1.60;;
20997;SDS011;10657;51.276;6.390;2023-04-25T10:15:00;7.63;;;1.98;;
20997;SDS011;10657;51.276;6.390;2023-04-25T10:17:27;7.55;;;1.67;;
20997;SDS011;10657;51.276;6.390;2023-04-25T10:19:54;6.30;;;1.38;;
20997;SDS011;10657;51.276;6.390;2023-04-25T10:22:37;8.43;;;1.50;;
20997;SDS011;10657;51.276;6.390;2023-04-25T10:25:10;10.05;;;1.80;;
20997;SDS011;10657;51.276;6.390;2023-04-25T10:27:38;8.35;;;1.80;;
20997;SDS011;10657;51.276;6.390;2023-04-25T10:30:09;7.57;;;1.30;;
20997;SDS011;10657;51.276;6.390;2023-04-25T10:32:41;9.80;;;1.75;;
20997;SDS011;10657;51.276;6.390;2023-04-25T10:37:42;10.45;;;1.80;;
20997;SDS011;10657;51.276;6.390;2023-04-25T10:40:28;7.57;;;1.85;;
20997;SDS011;10657;51.276;6.390;2023-04-25T10:42:56;10.27;;;1.98;;
20997;SDS011;10657;51.276;6.390;2023-04-25T10:46:00;3.97;;;1.40;;
20997;SDS011;10657;51.276;6.390;2023-04-25T10:48:28;7.10;;;1.80;;
20997;SDS011;10657;51.276;6.390;2023-04-25T10:51:06;7.78;;;1.83;;
20997;SDS011;10657;51.276;6.390;2023-04-25T10:53:34;10.05;;;1.98;;
20997;SDS011;10657;51.276;6.390;2023-04-25T10:56:08;7.95;;;2.05;;
20997;SDS011;10657;51.276;6.390;2023-04-25T11:01:42;6.00;;;1.65;;
20997;SDS011;10657;51.276;6.390;2023-04-25T11:04:23;7.90;;;2.00;;
20997;SDS011;10657;51.276;6.390;2023-04-25T11:09:33;9.20;;;1.85;;
20997;SDS011;10657;51.276;6.390;2023-04-25T11:12:01;7.53;;;2.22;;
20997;SDS011;10657;51.276;6.390;2023-04-25T11:14:27;8.55;;;2.08;;
20997;SDS011;10657;51.276;6.390;2023-04-25T11:16:54;8.07;;;1.92;;
20997;SDS011;10657;51.276;6.390;2023-04-25T11:19:25;8.50;;;1.80;;
20997;SDS011;10657;51.276;6.390;2023-04-25T11:21:56;8.60;;;2.00;;
20997;SDS011;10657;51.276;6.390;2023-04-25T11:24:27;7.25;;;1.90;;
20997;SDS011;10657;51.276;6.390;2023-04-25T11:26:58;7.90;;;1.73;;
20997;SDS011;10657;51.276;6.390;2023-04-25T11:29:29;8.55;;;1.92;;
20997;SDS011;10657;51.276;6.390;2023-04-25T11:31:57;8.32;;;1.92;;
20997;SDS011;10657;51.276;6.390;2023-04-25T11:34:25;10.55;;;2.15;;
20997;SDS011;10657;51.276;6.390;2023-04-25T11:36:52;7.55;;;1.98;;
20997;SDS011;10657;51.276;6.390;2023-04-25T11:39:19;6.88;;;1.60;;
20997;SDS011;10657;51.276;6.390;2023-04-25T11:41:46;6.70;;;1.73;;
20997;SDS011;10657;51.276;6.390;2023-04-25T11:44:16;12.80;;;1.90;;
20997;SDS011;10657;51.276;6.390;2023-04-25T11:46:44;8.35;;;1.67;;
20997;SDS011;10657;51.276;6.390;2023-04-25T11:49:11;8.10;;;1.80;;
20997;SDS011;10657;51.276;6.390;2023-04-25T11:51:39;7.40;;;2.05;;
20997;SDS011;10657;51.276;6.390;2023-04-25T11:54:06;12.32;;;1.95;;
20997;SDS011;10657;51.276;6.390;2023-04-25T11:56:33;7.32;;;1.67;;
20997;SDS011;10657;51.276;6.390;2023-04-25T11:59:01;5.40;;;1.27;;
20997;SDS011;10657;51.276;6.390;2023-04-25T12:01:30;8.65;;;1.55;;
20997;SDS011;10657;51.276;6.390;2023-04-25T12:04:14;5.95;;;1.60;;
20997;SDS011;10657;51.276;6.390;2023-04-25T12:06:42;5.00;;;1.50;;
20997;SDS011;10657;51.276;6.390;2023-04-25T12:09:10;5.55;;;1.50;;
20997;SDS011;10657;51.276;6.390;2023-04-25T12:11:42;4.95;;;1.25;;
20997;SDS011;10657;51.276;6.390;2023-04-25T12:14:10;5.72;;;1.38;;
20997;SDS011;10657;51.276;6.390;2023-04-25T12:16:44;3.72;;;1.27;;
20997;SDS011;10657;51.276;6.390;2023-04-25T12:19:15;4.70;;;1.55;;
20997;SDS011;10657;51.276;6.390;2023-04-25T12:21:43;4.80;;;1.10;;
20997;SDS011;10657;51.276;6.390;2023-04-25T12:24:24;7.03;;;1.00;;
20997;SDS011;10657;51.276;6.390;2023-04-25T12:27:05;4.90;;;1.15;;
20997;SDS011;10657;51.276;6.390;2023-04-25T12:29:32;5.63;;;1.33;;
20997;SDS011;10657;51.276;6.390;2023-04-25T12:32:14;5.93;;;1.48;;
20997;SDS011;10657;51.276;6.390;2023-04-25T12:34:41;6.68;;;1.90;;
20997;SDS011;10657;51.276;6.390;2023-04-25T12:37:08;6.88;;;1.25;;
20997;SDS011;10657;51.276;6.390;2023-04-25T12:39:34;4.70;;;1.27;;
20997;SDS011;10657;51.276;6.390;2023-04-25T12:42:01;5.03;;;1.10;;
20997;SDS011;10657;51.276;6.390;2023-04-25T12:44:30;5.78;;;1.38;;
20997;SDS011;10657;51.276;6.390;2023-04-25T12:46:56;4.50;;;0.95;;
20997;SDS011;10657;51.276;6.390;2023-04-25T12:49:23;6.15;;;1.05;;
20997;SDS011;10657;51.276;6.390;2023-04-25T12:51:51;4.05;;;1.00;;
20997;SDS011;10657;51.276;6.390;2023-04-25T12:54:18;7.00;;;1.23;;
20997;SDS011;10657;51.276;6.390;2023-04-25T12:56:44;5.25;;;1.02;;
20997;SDS011;10657;51.276;6.390;2023-04-25T12:59:12;8.00;;;1.40;;
20997;SDS011;10657;51.276;6.390;2023-04-25T13:01:38;6.97;;;1.30;;
20997;SDS011;10657;51.276;6.390;2023-04-25T13:04:05;9.10;;;1.60;;
20997;SDS011;10657;51.276;6.390;2023-04-25T13:06:32;6.03;;;1.33;;
20997;SDS011;10657;51.276;6.390;2023-04-25T13:08:59;5.22;;;1.10;;
20997;SDS011;10657;51.276;6.390;2023-04-25T13:11:26;4.30;;;1.05;;
20997;SDS011;10657;51.276;6.390;2023-04-25T13:13:53;6.07;;;1.40;;
20997;SDS011;10657;51.276;6.390;2023-04-25T13:16:20;7.05;;;1.33;;
20997;SDS011;10657;51.276;6.390;2023-04-25T13:18:47;5.53;;;1.58;;
20997;SDS011;10657;51.276;6.390;2023-04-25T13:21:14;6.13;;;1.58;;
20997;SDS011;10657;51.276;6.390;2023-04-25T13:23:41;6.15;;;1.60;;
20997;SDS011;10657;51.276;6.390;2023-04-25T13:26:09;10.10;;;1.70;;
20997;SDS011;10657;51.276;6.390;2023-04-25T13:28:36;7.65;;;1.92;;
20997;SDS011;10657;51.276;6.390;2023-04-25T13:31:02;9.70;;;2.05;;
20997;SDS011;10657;51.276;6.390;2023-04-25T13:33:29;10.98;;;1.88;;
20997;SDS011;10657;51.276;6.390;2023-04-25T13:35:56;7.53;;;2.58;;
20997;SDS011;10657;51.276;6.390;2023-04-25T13:38:24;6.82;;;1.88;;
20997;SDS011;10657;51.276;6.390;2023-04-25T13:40:51;8.00;;;1.92;;
20997;SDS011;10657;51.276;6.390;2023-04-25T13:43:19;6.80;;;1.63;;
20997;SDS011;10657;51.276;6.390;2023-04-25T13:45:48;7.80;;;1.80;;
20997;SDS011;10657;51.276;6.390;2023-04-25T13:48:15;4.90;;;1.60;;
20997;SDS011;10657;51.276;6.390;2023-04-25T13:50:42;9.20;;;2.28;;
20997;SDS011;10657;51.276;6.390;2023-04-25T13:53:09;9.18;;;2.10;;
20997;SDS011;10657;51.276;6.390;2023-04-25T13:55:36;6.68;;;1.70;;
20997;SDS011;10657;51.276;6.390;2023-04-25T13:58:03;10.05;;;2.30;;
20997;SDS011;10657;51.276;6.390;2023-04-25T14:00:35;8.13;;;2.28;;
20997;SDS011;10657;51.276;6.390;2023-04-25T14:03:04;7.00;;;2.15;;
20997;SDS011;10657;51.276;6.390;2023-04-25T14:05:34;5.78;;;1.40;;
20997;SDS011;10657;51.276;6.390;2023-04-25T14:08:08;8.25;;;2.28;;
20997;SDS011;10657;51.276;6.390;2023-04-25T14:10:35;8.30;;;2.10;;
20997;SDS011;10657;51.276;6.390;2023-04-25T14:13:04;7.68;;;2.08;;
20997;SDS011;10657;51.276;6.390;2023-04-25T14:15:34;7.70;;;2.13;;
20997;SDS011;10657;51.276;6.390;2023-04-25T14:18:01;6.13;;;1.77;;
20997;SDS011;10657;51.276;6.390;2023-04-25T14:20:28;5.35;;;1.77;;
20997;SDS011;10657;51.276;6.390;2023-04-25T14:22:55;6.90;;;1.90;;
20997;SDS011;10657;51.276;6.390;2023-04-25T14:25:24;7.55;;;1.52;;
20997;SDS011;10657;51.276;6.390;2023-04-25T14:27:51;4.35;;;1.10;;
20997;SDS011;10657;51.276;6.390;2023-04-25T14:30:18;3.22;;;0.95;;
20997;SDS011;10657;51.276;6.390;2023-04-25T14:32:45;5.68;;;1.48;;
20997;SDS011;10657;51.276;6.390;2023-04-25T14:35:12;6.38;;;1.40;;
20997;SDS011;10657;51.276;6.390;2023-04-25T14:37:39;6.03;;;1.15;;
20997;SDS011;10657;51.276;6.390;2023-04-25T14:40:07;3.70;;;1.17;;
20997;SDS011;10657;51.276;6.390;2023-04-25T14:42:39;5.82;;;1.15;;
20997;SDS011;10657;51.276;6.390;2023-04-25T14:45:06;4.78;;;1.10;;
20997;SDS011;10657;51.276;6.390;2023-04-25T14:47:37;7.35;;;1.60;;
20997;SDS011;10657;51.276;6.390;2023-04-25T14:50:04;8.07;;;1.63;;
20997;SDS011;10657;51.276;6.390;2023-04-25T14:52:32;8.25;;;1.60;;
20997;SDS011;10657;51.276;6.390;2023-04-25T14:54:59;8.18;;;1.70;;
20997;SDS011;10657;51.276;6.390;2023-04-25T14:57:32;7.38;;;1.70;;
20997;SDS011;10657;51.276;6.390;2023-04-25T14:59:59;5.43;;;1.50;;